Time;durP1;ratioP1;P1;durP2;ratioP2;P2;SDS_P1;SDS_P2;PMS_P1;PMS_P2;Temp;Humidity;BMP_temperature;BMP_pressure;BME280_temperature;BME280_humidity;BME280_pressure;Samples;Min_cycle;Max_cycle;Signal;HPM_P1;HPM_P2
2022/08/25 00:00:30;;;;;;;;;;;;;;;24.96;58.76;101410.41;1044843;28;756;-67
2022/08/25 00:01:20;;;;;;;;;;;;;;;24.97;58.85;101405.78;1043773;28;654;-67
2022/08/25 00:02:11;;;;;;;;;;;;;;;24.98;58.88;101405.63;1046627;28;747;-67
2022/08/25 00:03:01;;;;;;;;;;;;;;;24.98;58.79;101405.63;1040554;28;642;-68
2022/08/25 00:03:52;;;;;;;;;;;;;;;24.98;59.00;101402.88;1041065;28;657;-67
2022/08/25 00:04:42;;;;;;;;;;;;;;;24.98;58.87;101400.16;1045514;28;632;-67
2022/08/25 00:05:33;;;;;;;;;;;;;;;24.98;58.92;101404.75;1044474;28;720;-67
2022/08/25 00:06:23;;;;;;;;;;;;;;;24.96;58.94;101402.22;1044345;28;622;-67
2022/08/25 00:07:14;;;;;;;;;;;;;;;24.97;58.95;101403.91;1044498;28;645;-67
2022/08/25 00:08:05;;;;;;;;;;;;;;;24.95;58.73;101403.25;1045618;28;802;-67
2022/08/25 00:08:58;;;;;;;;;;;;;;;24.93;59.11;101402.53;1040476;28;637;-66
2022/08/25 00:09:49;;;;;;;;;;;;;;;24.94;58.97;101398.81;1041685;28;706;-67
2022/08/25 00:10:40;;;;;;;;;;;;;;;24.95;58.87;101397.78;1044508;28;744;-67
2022/08/25 00:11:30;;;;;;;;;;;;;;;24.93;59.05;101403.38;1044076;28;721;-67
2022/08/25 00:12:21;;;;;;;;;;;;;;;24.91;59.06;101404.59;1048394;28;1197;-67
2022/08/25 00:13:12;;;;;;;;;;;;;;;24.93;59.05;101405.25;1049608;28;704;-66
2022/08/25 00:14:02;;;;;;;;;;;;;;;24.93;58.91;101408.84;1049595;28;609;-68
2022/08/25 00:14:53;;;;;;;;;;;;;;;24.94;58.93;101404.28;1049764;28;732;-66
2022/08/25 00:15:45;;;;;;;;;;;;;;;24.91;59.05;101405.44;1049766;28;633;-68
2022/08/25 00:16:36;;;;;;;;;;;;;;;24.92;58.84;101406.28;1048424;28;654;-66
2022/08/25 00:17:26;;;;;;;;;;;;;;;24.92;58.84;101406.28;1050490;28;629;-67
2022/08/25 00:18:17;;;;;;;;;;;;;;;24.91;59.20;101399.13;1049593;28;642;-67
2022/08/25 00:19:07;;;;;;;;;;;;;;;24.92;58.96;101406.28;1049541;28;633;-67
2022/08/25 00:19:58;;;;;;;;;;;;;;;24.92;58.84;101403.56;1049605;28;658;-67
2022/08/25 00:20:48;;;;;;;;;;;;;;;24.91;59.23;101399.13;1049676;28;690;-67
2022/08/25 00:21:39;;;;;;;;;;;;;;;24.92;59.06;101406.28;1048446;28;698;-67
2022/08/25 00:22:30;;;;;;;;;;;;;;;24.91;58.98;101394.53;1049156;28;692;-68
2022/08/25 00:23:20;;;;;;;;;;;;;;;24.87;58.99;101393.22;1049499;28;685;-66
2022/08/25 00:24:11;;;;;;;;;;;;;;;24.88;58.92;101394.91;1048050;28;618;-68
2022/08/25 00:25:01;;;;;;;;;;;;;;;24.86;59.27;101391.53;1049235;28;1957;-67
2022/08/25 00:25:52;;;;;;;;;;;;;;;24.88;58.96;101400.38;1049599;28;689;-66
2022/08/25 00:26:42;;;;;;;;;;;;;;;24.89;59.13;101393.03;1048177;28;633;-66
2022/08/25 00:27:33;;;;;;;;;;;;;;;24.90;58.93;101394.75;1050362;28;671;-67
2022/08/25 00:28:23;;;;;;;;;;;;;;;24.86;59.17;101385.22;1049528;28;605;-67
2022/08/25 00:29:14;;;;;;;;;;;;;;;24.87;59.09;101387.75;1049691;28;673;-67
2022/08/25 00:30:04;;;;;;;;;;;;;;;24.86;59.18;101387.94;1047791;28;681;-67
2022/08/25 00:30:55;;;;;;;;;;;;;;;24.86;58.99;101390.66;1049646;28;685;-67
2022/08/25 00:31:45;;;;;;;;;;;;;;;24.87;58.75;101386.91;1049531;28;637;-67
2022/08/25 00:32:36;;;;;;;;;;;;;;;24.84;59.31;101392.72;1049683;28;772;-67
2022/08/25 00:33:26;;;;;;;;;;;;;;;24.85;59.14;101394.41;1047714;28;689;-67
2022/08/25 00:34:16;;;;;;;;;;;;;;;24.85;59.28;101389.81;1049549;28;705;-67
2022/08/25 00:35:07;;;;;;;;;;;;;;;24.85;59.18;101395.28;1049511;28;646;-67
2022/08/25 00:35:57;;;;;;;;;;;;;;;24.86;59.17;101388.78;1049539;28;665;-67
2022/08/25 00:36:50;;;;;;;;;;;;;;;24.85;59.28;101392.53;1048009;28;793;-67
2022/08/25 00:37:40;;;;;;;;;;;;;;;24.82;59.42;101400.22;1048178;28;615;-67
2022/08/25 00:38:31;;;;;;;;;;;;;;;24.85;59.11;101397.16;1050319;28;759;-67
2022/08/25 00:39:21;;;;;;;;;;;;;;;24.85;59.11;101394.41;1050755;28;669;-67
2022/08/25 00:40:12;;;;;;;;;;;;;;;24.84;59.41;101390.00;1049512;28;702;-67
2022/08/25 00:41:05;;;;;;;;;;;;;;;24.83;59.09;101396.47;1049472;28;750;-67
2022/08/25 00:41:56;;;;;;;;;;;;;;;24.81;59.19;101391.19;1049692;28;708;-67
2022/08/25 00:42:47;;;;;;;;;;;;;;;24.81;59.18;101393.94;1049668;28;668;-67
2022/08/25 00:43:37;;;;;;;;;;;;;;;24.82;59.41;101387.44;1049532;28;629;-66
2022/08/25 00:44:27;;;;;;;;;;;;;;;24.82;59.46;101389.31;1047732;28;650;-67
2022/08/25 00:45:18;;;;;;;;;;;;;;;24.79;59.28;101398.69;1049500;28;716;-67
2022/08/25 00:46:08;;;;;;;;;;;;;;;24.79;59.34;101390.53;1049566;28;708;-67
2022/08/25 00:46:59;;;;;;;;;;;;;;;24.80;59.43;101388.66;1048207;28;666;-67
2022/08/25 00:47:50;;;;;;;;;;;;;;;24.80;59.40;101389.50;1049248;28;649;-68
2022/08/25 00:48:41;;;;;;;;;;;;;;;24.78;59.40;101387.97;1046311;28;712;-67
2022/08/25 00:49:31;;;;;;;;;;;;;;;24.81;59.30;101390.34;1046261;28;728;-68
2022/08/25 00:50:22;;;;;;;;;;;;;;;24.79;59.28;101384.22;1050110;28;724;-67
2022/08/25 00:51:12;;;;;;;;;;;;;;;24.81;59.25;101384.91;1049450;28;645;-67
2022/08/25 00:52:03;;;;;;;;;;;;;;;24.77;59.50;101386.28;1049528;28;657;-68
2022/08/25 00:52:53;;;;;;;;;;;;;;;24.79;59.34;101390.53;1049442;28;650;-67
2022/08/25 00:53:43;;;;;;;;;;;;;;;24.78;59.52;101382.53;1049592;28;692;-67
2022/08/25 00:54:34;;;;;;;;;;;;;;;24.77;59.26;101386.28;1048048;28;670;-68
2022/08/25 00:55:24;;;;;;;;;;;;;;;24.75;59.44;101389.19;1049462;28;642;-68
2022/08/25 00:56:15;;;;;;;;;;;;;;;24.75;59.42;101382.88;1047917;28;666;-67
2022/08/25 00:57:05;;;;;;;;;;;;;;;24.74;59.49;101379.31;1048925;28;653;-67
2022/08/25 00:57:56;;;;;;;;;;;;;;;24.75;59.49;101393.78;1049590;28;713;-67
2022/08/25 00:58:46;;;;;;;;;;;;;;;24.73;59.63;101379.47;1049449;28;634;-67
2022/08/25 00:59:37;;;;;;;;;;;;;;;24.74;59.54;101381.19;1049496;28;673;-67
2022/08/25 01:00:27;;;;;;;;;;;;;;;24.75;59.57;101389.19;1049479;28;657;-67
2022/08/25 01:01:17;;;;;;;;;;;;;;;24.75;59.49;101377.44;1049481;28;613;-67
2022/08/25 01:02:08;;;;;;;;;;;;;;;24.74;59.55;101389.34;1048820;28;866;-67
2022/08/25 01:02:58;;;;;;;;;;;;;;;24.75;59.46;101389.19;1049436;28;613;-67
2022/08/25 01:03:49;;;;;;;;;;;;;;;24.73;59.41;101379.47;1048560;28;733;-67
2022/08/25 01:04:39;;;;;;;;;;;;;;;24.73;59.62;101385.78;1049515;28;748;-67
2022/08/25 01:05:30;;;;;;;;;;;;;;;24.72;59.63;101380.53;1049478;28;645;-67
2022/08/25 01:06:20;;;;;;;;;;;;;;;24.73;59.48;101377.59;1047264;28;626;-67
2022/08/25 01:07:11;;;;;;;;;;;;;;;24.71;59.34;101382.41;1048447;28;728;-67
2022/08/25 01:08:02;;;;;;;;;;;;;;;24.72;59.53;101383.25;1047749;28;673;-67
2022/08/25 01:08:53;;;;;;;;;;;;;;;24.73;59.52;101379.47;1049452;28;625;-67
2022/08/25 01:09:43;;;;;;;;;;;;;;;24.71;59.49;101374.22;1049476;28;1053;-67
2022/08/25 01:10:34;;;;;;;;;;;;;;;24.71;59.68;101371.50;1049544;28;680;-67
2022/08/25 01:11:26;;;;;;;;;;;;;;;24.71;59.46;101381.56;1049392;28;685;-67
2022/08/25 01:12:16;;;;;;;;;;;;;;;24.69;59.85;101379.00;1047843;28;1192;-67
2022/08/25 01:13:07;;;;;;;;;;;;;;;24.70;59.59;101379.84;1049724;28;708;-67
2022/08/25 01:13:57;;;;;;;;;;;;;;;24.69;59.91;101378.16;1048963;28;677;-67
2022/08/25 01:14:48;;;;;;;;;;;;;;;24.69;59.87;101375.44;1049544;28;665;-67
2022/08/25 01:15:40;;;;;;;;;;;;;;;24.68;59.86;101377.31;1048926;28;657;-67
2022/08/25 01:16:30;;;;;;;;;;;;;;;24.67;59.69;101383.78;1049429;28;645;-67
2022/08/25 01:17:21;;;;;;;;;;;;;;;24.68;59.68;101376.47;1048993;28;700;-67
2022/08/25 01:18:11;;;;;;;;;;;;;;;24.68;59.71;101365.56;1048818;28;646;-67
2022/08/25 01:19:02;;;;;;;;;;;;;;;24.66;59.61;101376.63;1048950;28;725;-67
2022/08/25 01:19:53;;;;;;;;;;;;;;;24.67;59.62;101375.59;1048770;28;646;-67
2022/08/25 01:20:45;;;;;;;;;;;;;;;24.68;59.83;101371.84;1049011;28;665;-67
2022/08/25 01:21:35;;;;;;;;;;;;;;;24.67;59.42;101375.59;1048864;28;646;-68
2022/08/25 01:22:26;;;;;;;;;;;;;;;24.65;59.67;101377.66;1048935;28;658;-67
2022/08/25 01:23:16;;;;;;;;;;;;;;;24.66;59.87;101373.91;1048790;28;626;-68
2022/08/25 01:24:07;;;;;;;;;;;;;;;24.67;59.57;101374.75;1048819;28;712;-66
2022/08/25 01:24:57;;;;;;;;;;;;;;;24.66;60.06;101381.25;1048841;28;1967;-66
2022/08/25 01:25:48;;;;;;;;;;;;;;;24.64;59.83;101375.09;1048906;28;685;-66
2022/08/25 01:26:39;;;;;;;;;;;;;;;24.66;59.83;101373.91;1049000;28;670;-66
2022/08/25 01:27:29;;;;;;;;;;;;;;;24.65;59.62;101374.09;1048814;28;626;-67
2022/08/25 01:28:20;;;;;;;;;;;;;;;24.63;59.76;101374.25;1048815;28;673;-66
2022/08/25 01:29:19;;;;;;;;;;;;;;;24.64;59.65;101372.38;1048773;28;696;-67
2022/08/25 01:30:10;;;;;;;;;;;;;;;24.63;59.96;101374.25;1049075;28;677;-66
2022/08/25 01:31:00;;;;;;;;;;;;;;;24.64;59.86;101375.09;1049183;28;705;-66
2022/08/25 01:31:51;;;;;;;;;;;;;;;24.61;59.82;101373.59;1049046;28;672;-66
2022/08/25 01:32:41;;;;;;;;;;;;;;;24.62;59.72;101371.72;1048789;28;712;-66
2022/08/25 01:33:31;;;;;;;;;;;;;;;24.62;59.89;101378.00;1048928;28;622;-66
2022/08/25 01:34:22;;;;;;;;;;;;;;;24.61;60.03;101376.31;1048862;28;653;-66
2022/08/25 01:35:13;;;;;;;;;;;;;;;24.62;60.10;101372.56;1048898;28;630;-66
2022/08/25 01:36:04;;;;;;;;;;;;;;;24.61;59.71;101375.47;1048831;28;704;-66
2022/08/25 01:36:54;;;;;;;;;;;;;;;24.61;59.89;101378.19;1048822;28;750;-66
2022/08/25 01:37:45;;;;;;;;;;;;;;;24.60;60.25;101371.03;1048884;28;744;-66
2022/08/25 01:38:35;;;;;;;;;;;;;;;24.61;59.72;101372.72;1049329;28;689;-66
2022/08/25 01:39:26;;;;;;;;;;;;;;;24.60;60.02;101374.63;1048867;28;614;-66
2022/08/25 01:40:16;;;;;;;;;;;;;;;24.58;59.87;101377.50;1048761;28;642;-66
2022/08/25 01:41:06;;;;;;;;;;;;;;;24.59;59.88;101378.38;1048855;28;694;-66
2022/08/25 01:41:57;;;;;;;;;;;;;;;24.60;59.84;101371.03;1049418;28;679;-67
2022/08/25 01:42:47;;;;;;;;;;;;;;;24.60;59.98;101371.88;1048740;28;713;-66
2022/08/25 01:43:38;;;;;;;;;;;;;;;24.58;59.90;101372.06;1048960;28;697;-66
2022/08/25 01:44:28;;;;;;;;;;;;;;;24.58;60.21;101376.66;1049381;28;610;-66
2022/08/25 01:45:19;;;;;;;;;;;;;;;24.59;60.19;101372.91;1048766;28;1949;-67
2022/08/25 01:46:09;;;;;;;;;;;;;;;24.57;59.94;101383.13;1048759;28;651;-67
2022/08/25 01:47:00;;;;;;;;;;;;;;;24.56;60.14;101376.00;1048860;28;673;-66
2022/08/25 01:47:50;;;;;;;;;;;;;;;24.55;60.04;101366.97;1049379;28;645;-66
2022/08/25 01:48:41;;;;;;;;;;;;;;;24.58;59.85;101368.50;1049477;28;1085;-66
2022/08/25 01:49:31;;;;;;;;;;;;;;;24.57;60.04;101372.22;1048434;28;661;-66
2022/08/25 01:50:21;;;;;;;;;;;;;;;24.55;60.11;101372.41;1048932;28;665;-66
2022/08/25 01:51:12;;;;;;;;;;;;;;;24.54;60.14;101368.00;1048771;28;701;-66
2022/08/25 01:52:02;;;;;;;;;;;;;;;24.54;60.08;101369.91;1048734;28;626;-66
2022/08/25 01:52:53;;;;;;;;;;;;;;;24.54;60.01;101368.00;1048768;28;665;-66
2022/08/25 01:53:43;;;;;;;;;;;;;;;24.54;60.14;101364.44;1048730;28;626;-67
2022/08/25 01:54:34;;;;;;;;;;;;;;;24.53;60.00;101369.03;1048788;28;632;-66
2022/08/25 01:55:24;;;;;;;;;;;;;;;24.52;59.94;101370.06;1049278;28;689;-66
2022/08/25 01:56:14;;;;;;;;;;;;;;;24.52;60.35;101366.50;1049334;28;701;-66
2022/08/25 01:57:05;;;;;;;;;;;;;;;24.51;59.97;101365.66;1048803;28;733;-66
2022/08/25 01:57:55;;;;;;;;;;;;;;;24.52;60.09;101363.78;1048790;28;630;-66
2022/08/25 01:58:46;;;;;;;;;;;;;;;24.51;59.97;101367.53;1048918;28;708;-66
2022/08/25 01:59:37;;;;;;;;;;;;;;;24.50;60.06;101371.28;1048748;28;696;-66
2022/08/25 02:00:27;;;;;;;;;;;;;;;24.51;60.55;101360.19;1049259;28;704;-66
2022/08/25 02:01:17;;;;;;;;;;;;;;;24.51;60.37;101365.66;1048949;28;696;-66
2022/08/25 02:02:08;;;;;;;;;;;;;;;24.50;59.98;101358.50;1049614;28;677;-66
2022/08/25 02:02:59;;;;;;;;;;;;;;;24.50;60.38;101361.22;1044927;28;793;-66
2022/08/25 02:03:49;;;;;;;;;;;;;;;24.50;59.98;101361.22;1044957;28;656;-67
2022/08/25 02:04:40;;;;;;;;;;;;;;;24.49;60.05;101362.25;1049302;28;602;-66
2022/08/25 02:05:30;;;;;;;;;;;;;;;24.49;60.13;101367.69;1049578;28;630;-66
2022/08/25 02:06:20;;;;;;;;;;;;;;;24.48;60.39;101360.53;1049524;28;723;-66
2022/08/25 02:07:11;;;;;;;;;;;;;;;24.48;60.38;101357.81;1050111;28;633;-66
2022/08/25 02:08:01;;;;;;;;;;;;;;;24.48;60.16;101349.66;1049535;28;762;-66
2022/08/25 02:08:52;;;;;;;;;;;;;;;24.48;60.31;101360.53;1049646;28;748;-66
2022/08/25 02:09:43;;;;;;;;;;;;;;;24.48;60.18;101359.69;1049850;28;720;-66
2022/08/25 02:10:34;;;;;;;;;;;;;;;24.47;60.07;101358.00;1049750;28;622;-66
2022/08/25 02:11:24;;;;;;;;;;;;;;;24.47;60.12;101358.84;1049438;28;634;-66
2022/08/25 02:12:14;;;;;;;;;;;;;;;24.46;60.44;101351.69;1049322;28;1204;-66
2022/08/25 02:13:05;;;;;;;;;;;;;;;24.47;60.26;101355.28;1044994;28;651;-66
2022/08/25 02:13:55;;;;;;;;;;;;;;;24.46;60.19;101357.16;1044777;28;662;-67
2022/08/25 02:14:47;;;;;;;;;;;;;;;24.47;60.43;101358.84;1044940;28;654;-67
2022/08/25 02:15:37;;;;;;;;;;;;;;;24.43;60.18;101351.19;1044177;28;635;-67
2022/08/25 02:16:28;;;;;;;;;;;;;;;24.42;60.20;101355.78;1044992;28;670;-68
2022/08/25 02:17:18;;;;;;;;;;;;;;;24.43;60.40;101352.03;1044724;28;733;-67
2022/08/25 02:18:09;;;;;;;;;;;;;;;24.43;60.40;101354.78;1044742;28;644;-67
2022/08/25 02:18:59;;;;;;;;;;;;;;;24.45;60.17;101360.03;1044241;28;682;-67
2022/08/25 02:19:50;;;;;;;;;;;;;;;24.43;60.13;101352.03;1044943;28;662;-67
2022/08/25 02:20:41;;;;;;;;;;;;;;;24.44;60.15;101356.47;1044815;28;646;-67
2022/08/25 02:21:31;;;;;;;;;;;;;;;24.43;60.45;101354.78;1044945;28;653;-67
2022/08/25 02:22:21;;;;;;;;;;;;;;;24.42;60.09;101358.53;1044726;28;614;-68
2022/08/25 02:23:12;;;;;;;;;;;;;;;24.44;60.29;101355.63;1044945;28;689;-67
2022/08/25 02:24:02;;;;;;;;;;;;;;;24.41;60.48;101359.53;1044743;28;643;-67
2022/08/25 02:24:53;;;;;;;;;;;;;;;24.41;60.42;101355.97;1044777;28;1968;-67
2022/08/25 02:25:43;;;;;;;;;;;;;;;24.40;60.42;101360.56;1044683;28;681;-67
2022/08/25 02:26:35;;;;;;;;;;;;;;;24.40;60.44;101359.72;1044672;28;622;-67
2022/08/25 02:27:25;;;;;;;;;;;;;;;24.42;60.24;101361.25;1044982;28;641;-66
2022/08/25 02:28:15;;;;;;;;;;;;;;;24.40;60.24;101352.41;1044779;28;622;-67
2022/08/25 02:29:06;;;;;;;;;;;;;;;24.40;60.22;101357.84;1044880;28;745;-66
2022/08/25 02:29:56;;;;;;;;;;;;;;;24.40;60.48;101357.84;1044686;28;635;-67
2022/08/25 02:30:47;;;;;;;;;;;;;;;24.39;60.56;101356.13;1044792;28;772;-66
2022/08/25 02:31:38;;;;;;;;;;;;;;;24.40;60.42;101357.00;1044646;28;674;-67
2022/08/25 02:32:28;;;;;;;;;;;;;;;24.38;60.45;101354.44;1044271;28;705;-67
2022/08/25 02:33:18;;;;;;;;;;;;;;;24.38;60.49;101359.88;1044260;28;681;-66
2022/08/25 02:34:09;;;;;;;;;;;;;;;24.37;60.33;101358.19;1044868;28;662;-67
2022/08/25 02:34:59;;;;;;;;;;;;;;;24.38;60.32;101354.44;1044714;28;690;-67
2022/08/25 02:35:50;;;;;;;;;;;;;;;24.38;60.22;101354.44;1044945;28;685;-67
2022/08/25 02:36:41;;;;;;;;;;;;;;;24.37;60.60;101352.75;1048679;28;697;-67
2022/08/25 02:37:31;;;;;;;;;;;;;;;24.37;60.44;101355.47;1050967;28;633;-68
2022/08/25 02:38:21;;;;;;;;;;;;;;;24.36;60.66;101348.34;1046052;28;689;-67
2022/08/25 02:39:12;;;;;;;;;;;;;;;24.36;60.68;101350.22;1044842;28;646;-67
2022/08/25 02:40:03;;;;;;;;;;;;;;;24.35;60.28;101348.53;1044707;28;638;-67
2022/08/25 02:40:53;;;;;;;;;;;;;;;24.36;60.34;101347.50;1045218;28;748;-67
2022/08/25 02:41:44;;;;;;;;;;;;;;;24.34;60.45;101353.13;1044709;28;634;-67
2022/08/25 02:42:34;;;;;;;;;;;;;;;24.35;60.41;101349.38;1044946;28;678;-67
2022/08/25 02:43:24;;;;;;;;;;;;;;;24.36;60.11;101347.50;1044781;28;681;-66
2022/08/25 02:44:15;;;;;;;;;;;;;;;24.34;60.75;101342.22;1044843;28;725;-66
2022/08/25 02:45:06;;;;;;;;;;;;;;;24.35;60.41;101340.34;1044538;28;1898;-66
2022/08/25 02:45:58;;;;;;;;;;;;;;;24.33;60.56;101343.25;1044170;28;638;-66
2022/08/25 02:46:48;;;;;;;;;;;;;;;24.35;60.36;101348.53;1044360;28;634;-66
2022/08/25 02:47:38;;;;;;;;;;;;;;;24.35;60.59;101348.53;1044178;28;622;-66
2022/08/25 02:48:29;;;;;;;;;;;;;;;24.33;60.24;101345.13;1044795;28;654;-66
2022/08/25 02:49:19;;;;;;;;;;;;;;;24.32;60.47;101349.72;1045234;28;701;-66
2022/08/25 02:50:10;;;;;;;;;;;;;;;24.31;60.52;101348.03;1044921;28;721;-66
2022/08/25 02:51:00;;;;;;;;;;;;;;;24.31;60.75;101347.16;1044617;28;634;-66
2022/08/25 02:51:51;;;;;;;;;;;;;;;24.33;60.62;101350.56;1044732;28;650;-66
2022/08/25 02:52:41;;;;;;;;;;;;;;;24.33;60.41;101345.13;1045781;28;676;-66
2022/08/25 02:53:32;;;;;;;;;;;;;;;24.31;60.48;101345.31;1044701;28;653;-66
2022/08/25 02:54:22;;;;;;;;;;;;;;;24.31;60.63;101344.44;1044817;28;653;-66
2022/08/25 02:55:13;;;;;;;;;;;;;;;24.31;60.66;101344.44;1045937;28;676;-67
2022/08/25 02:56:03;;;;;;;;;;;;;;;24.29;60.39;101339.19;1044652;28;626;-67
2022/08/25 02:56:54;;;;;;;;;;;;;;;24.30;60.68;101332.69;1044694;28;692;-67
2022/08/25 02:57:44;;;;;;;;;;;;;;;24.28;60.46;101332.03;1044788;28;724;-67
2022/08/25 02:58:34;;;;;;;;;;;;;;;24.29;60.66;101336.44;1044644;28;614;-67
2022/08/25 02:59:25;;;;;;;;;;;;;;;24.27;60.59;101330.31;1048592;28;669;-67
2022/08/25 03:00:15;;;;;;;;;;;;;;;24.27;60.46;101330.31;1049664;28;777;-67
2022/08/25 03:01:06;;;;;;;;;;;;;;;24.26;60.47;101331.34;1046028;28;724;-67
2022/08/25 03:01:56;;;;;;;;;;;;;;;24.26;60.80;101328.63;1044038;28;759;-67
2022/08/25 03:02:47;;;;;;;;;;;;;;;24.26;60.55;101328.63;1044621;28;677;-67
2022/08/25 03:03:39;;;;;;;;;;;;;;;24.26;60.48;101328.63;1044756;28;736;-67
2022/08/25 03:04:30;;;;;;;;;;;;;;;24.26;60.56;101327.78;1044879;28;712;-67
2022/08/25 03:05:21;;;;;;;;;;;;;;;24.27;60.71;101330.31;1044023;28;1927;-67
2022/08/25 03:06:11;;;;;;;;;;;;;;;24.26;60.97;101328.63;1044798;28;832;-67
2022/08/25 03:07:02;;;;;;;;;;;;;;;24.27;60.63;101330.31;1044720;28;630;-67
2022/08/25 03:07:52;;;;;;;;;;;;;;;24.27;60.93;101326.75;1043956;28;614;-67
2022/08/25 03:08:43;;;;;;;;;;;;;;;24.27;60.70;101318.59;1044705;28;713;-67
2022/08/25 03:09:33;;;;;;;;;;;;;;;24.26;60.63;101322.31;1044456;28;646;-67
2022/08/25 03:10:24;;;;;;;;;;;;;;;24.25;60.86;101320.63;1044617;28;634;-67
2022/08/25 03:11:14;;;;;;;;;;;;;;;24.25;60.95;101320.63;1044529;28;891;-67
2022/08/25 03:12:05;;;;;;;;;;;;;;;24.25;60.75;101321.47;1044099;28;626;-67
2022/08/25 03:12:55;;;;;;;;;;;;;;;24.25;60.66;101324.19;1044572;28;709;-67
2022/08/25 03:13:49;;;;;;;;;;;;;;;24.23;60.41;101318.03;1044649;28;650;-66
2022/08/25 03:14:40;;;;;;;;;;;;;;;24.23;60.37;101312.59;1044695;28;681;-68
2022/08/25 03:15:30;;;;;;;;;;;;;;;24.23;61.13;101315.31;1044425;28;701;-66
2022/08/25 03:16:21;;;;;;;;;;;;;;;24.22;60.65;101311.75;1046364;28;643;-67
2022/08/25 03:17:12;;;;;;;;;;;;;;;24.22;60.90;101316.34;1044400;28;654;-67
2022/08/25 03:18:03;;;;;;;;;;;;;;;24.22;60.77;101311.75;1044708;28;658;-67
2022/08/25 03:18:53;;;;;;;;;;;;;;;24.22;60.88;101313.63;1044119;28;744;-67
2022/08/25 03:19:43;;;;;;;;;;;;;;;24.21;60.55;101315.50;1044493;28;674;-67
2022/08/25 03:20:34;;;;;;;;;;;;;;;24.22;60.54;101313.63;1044627;28;760;-67
2022/08/25 03:21:25;;;;;;;;;;;;;;;24.20;60.47;101308.34;1044539;28;796;-67
2022/08/25 03:22:15;;;;;;;;;;;;;;;24.20;60.97;101313.81;1044697;28;637;-67
2022/08/25 03:23:05;;;;;;;;;;;;;;;24.20;60.88;101311.06;1044532;28;748;-67
2022/08/25 03:23:56;;;;;;;;;;;;;;;24.21;60.63;101309.19;1044676;28;724;-67
2022/08/25 03:24:46;;;;;;;;;;;;;;;24.18;60.71;101302.22;1040606;28;787;-67
2022/08/25 03:26:52;;;;;;;;;;;;;;;24.19;60.50;101313.97;1044612;28;642;-67
2022/08/25 03:27:43;;;;;;;;;;;;;;;24.19;60.83;101303.06;1046913;28;688;-67
2022/08/25 03:28:33;;;;;;;;;;;;;;;24.17;60.63;101307.88;1040772;28;741;-68
2022/08/25 03:29:23;;;;;;;;;;;;;;;24.19;60.79;101297.63;1040738;28;646;-67
2022/08/25 03:30:14;;;;;;;;;;;;;;;24.20;60.71;101307.50;1044714;28;690;-67
2022/08/25 03:31:05;;;;;;;;;;;;;;;24.20;60.85;101304.78;1044157;28;705;-67
2022/08/25 03:31:56;;;;;;;;;;;;;;;24.19;61.02;101300.34;1046331;28;704;-67
2022/08/25 03:32:47;;;;;;;;;;;;;;;24.18;60.45;101302.22;1044109;28;658;-66
2022/08/25 03:33:37;;;;;;;;;;;;;;;24.18;60.81;101304.94;1044466;28;665;-67
2022/08/25 03:34:28;;;;;;;;;;;;;;;24.18;60.62;101301.41;1044702;28;666;-67
2022/08/25 03:35:18;;;;;;;;;;;;;;;24.19;60.83;101303.94;1044960;28;697;-67
2022/08/25 03:36:10;;;;;;;;;;;;;;;24.18;60.64;101304.94;1044562;28;663;-66
2022/08/25 03:37:01;;;;;;;;;;;;;;;24.18;60.74;101301.41;1040573;28;664;-67
2022/08/25 03:37:51;;;;;;;;;;;;;;;24.18;60.85;101304.13;1041801;28;642;-67
2022/08/25 03:38:42;;;;;;;;;;;;;;;24.16;60.55;101292.56;1044291;28;681;-67
2022/08/25 03:39:32;;;;;;;;;;;;;;;24.17;60.63;101297.00;1045109;28;696;-67
2022/08/25 03:40:23;;;;;;;;;;;;;;;24.16;60.58;101301.59;1040728;28;637;-67
2022/08/25 03:41:13;;;;;;;;;;;;;;;24.15;60.65;101297.16;1041167;28;705;-67
2022/08/25 03:42:04;;;;;;;;;;;;;;;24.17;60.98;101297.00;1044827;28;703;-67
2022/08/25 03:42:55;;;;;;;;;;;;;;;24.17;60.91;101297.00;1045112;28;716;-67
2022/08/25 03:43:46;;;;;;;;;;;;;;;24.15;60.59;101294.44;1043939;28;689;-66
2022/08/25 03:44:36;;;;;;;;;;;;;;;24.16;60.78;101290.69;1044764;28;702;-66
2022/08/25 03:45:26;;;;;;;;;;;;;;;24.17;60.76;101297.00;1040077;28;1963;-66
2022/08/25 03:46:18;;;;;;;;;;;;;;;24.15;60.57;101293.59;1040753;28;669;-67
2022/08/25 03:47:08;;;;;;;;;;;;;;;24.16;60.82;101292.56;1045581;28;653;-67
2022/08/25 03:47:59;;;;;;;;;;;;;;;24.14;60.61;101291.88;1040704;28;693;-67
2022/08/25 03:48:49;;;;;;;;;;;;;;;24.14;60.69;101290.00;1041018;28;1153;-67
2022/08/25 03:49:39;;;;;;;;;;;;;;;24.15;60.55;101288.16;1044832;28;701;-67
2022/08/25 03:50:30;;;;;;;;;;;;;;;24.14;60.99;101291.88;1044487;28;686;-67
2022/08/25 03:51:20;;;;;;;;;;;;;;;24.14;60.89;101286.44;1040589;28;646;-67
2022/08/25 03:52:11;;;;;;;;;;;;;;;24.12;60.89;101297.50;1041115;28;689;-67
2022/08/25 03:53:01;;;;;;;;;;;;;;;24.12;60.78;101293.94;1045145;28;642;-67
2022/08/25 03:53:52;;;;;;;;;;;;;;;24.12;60.90;101291.22;1044070;28;710;-67
2022/08/25 03:54:42;;;;;;;;;;;;;;;24.12;60.69;101291.22;1044156;28;665;-67
2022/08/25 03:55:33;;;;;;;;;;;;;;;24.12;60.64;101289.34;1046728;28;657;-67
2022/08/25 03:56:23;;;;;;;;;;;;;;;24.13;60.91;101290.19;1040642;28;665;-67
2022/08/25 03:57:13;;;;;;;;;;;;;;;24.12;60.98;101292.06;1041086;28;625;-67
2022/08/25 03:58:04;;;;;;;;;;;;;;;24.13;60.83;101291.03;1044516;28;658;-67
2022/08/25 03:58:54;;;;;;;;;;;;;;;24.11;60.94;101289.50;1044916;28;661;-66
2022/08/25 03:59:45;;;;;;;;;;;;;;;24.12;60.57;101288.50;1044462;28;658;-67
2022/08/25 04:00:35;;;;;;;;;;;;;;;24.11;60.97;101287.66;1046575;28;656;-66
2022/08/25 04:01:26;;;;;;;;;;;;;;;24.11;60.78;101294.97;1046206;28;696;-67
2022/08/25 04:02:16;;;;;;;;;;;;;;;24.11;60.85;101276.75;1044441;28;642;-67
2022/08/25 04:03:06;;;;;;;;;;;;;;;24.11;60.83;101289.50;1044330;28;713;-67
2022/08/25 04:03:57;;;;;;;;;;;;;;;24.10;60.88;101285.94;1044371;28;642;-67
2022/08/25 04:04:47;;;;;;;;;;;;;;;24.11;60.86;101286.78;1046207;28;630;-67
2022/08/25 04:05:38;;;;;;;;;;;;;;;24.10;60.78;101290.53;1040585;28;646;-67
2022/08/25 04:06:29;;;;;;;;;;;;;;;24.10;60.84;101285.94;1041068;28;658;-67
2022/08/25 04:07:19;;;;;;;;;;;;;;;24.10;60.91;101280.50;1044325;28;728;-67
2022/08/25 04:08:10;;;;;;;;;;;;;;;24.12;60.83;101283.03;1046649;28;649;-67
2022/08/25 04:09:00;;;;;;;;;;;;;;;24.11;60.56;101276.75;1044522;28;649;-67
2022/08/25 04:09:51;;;;;;;;;;;;;;;24.11;60.65;101281.34;1044423;28;748;-66
2022/08/25 04:10:41;;;;;;;;;;;;;;;24.11;60.84;101273.19;1046697;28;692;-67
2022/08/25 04:11:31;;;;;;;;;;;;;;;24.11;60.64;101279.47;1040571;28;630;-67
2022/08/25 04:12:22;;;;;;;;;;;;;;;24.09;61.03;101273.34;1042394;28;1198;-67
2022/08/25 04:13:13;;;;;;;;;;;;;;;24.10;61.04;101274.19;1044706;28;673;-67
2022/08/25 04:14:04;;;;;;;;;;;;;;;24.09;60.98;101284.25;1045286;28;713;-67
2022/08/25 04:14:55;;;;;;;;;;;;;;;24.10;60.96;101274.19;1049695;28;629;-67
2022/08/25 04:15:45;;;;;;;;;;;;;;;24.09;60.68;101267.06;1049697;28;697;-67
2022/08/25 04:16:36;;;;;;;;;;;;;;;24.08;60.65;101266.22;1049061;28;653;-67
2022/08/25 04:17:26;;;;;;;;;;;;;;;24.09;60.54;101267.06;1049712;28;712;-67
2022/08/25 04:18:16;;;;;;;;;;;;;;;24.09;60.87;101264.34;1049121;28;706;-67
2022/08/25 04:19:08;;;;;;;;;;;;;;;24.08;60.67;101268.06;1049615;28;657;-67
2022/08/25 04:19:58;;;;;;;;;;;;;;;24.08;60.84;101268.94;1049181;28;662;-67
2022/08/25 04:20:49;;;;;;;;;;;;;;;24.08;60.93;101262.63;1049711;28;697;-67
2022/08/25 04:21:39;;;;;;;;;;;;;;;24.06;60.99;101267.41;1049147;28;704;-67
2022/08/25 04:22:30;;;;;;;;;;;;;;;24.06;60.74;101261.97;1049710;28;650;-67
2022/08/25 04:23:21;;;;;;;;;;;;;;;24.06;60.55;101267.41;1049585;28;670;-67
2022/08/25 04:24:11;;;;;;;;;;;;;;;24.07;60.74;101258.22;1049572;28;709;-67
2022/08/25 04:25:01;;;;;;;;;;;;;;;24.06;60.82;101264.69;1048900;28;1901;-67
2022/08/25 04:25:52;;;;;;;;;;;;;;;24.05;60.69;101271.16;1049575;28;765;-67
2022/08/25 04:26:43;;;;;;;;;;;;;;;24.06;60.58;101265.53;1049669;28;669;-67
2022/08/25 04:27:33;;;;;;;;;;;;;;;24.07;60.95;101263.66;1049199;28;705;-67
2022/08/25 04:28:23;;;;;;;;;;;;;;;24.07;60.53;101260.94;1048965;28;611;-67